Time;durP1;ratioP1;P1;durP2;ratioP2;P2;SDS_P1;SDS_P2;PMS_P1;PMS_P2;Temp;Humidity;BMP_temperature;BMP_pressure;BME280_temperature;BME280_humidity;BME280_pressure;Samples;Min_cycle;Max_cycle;Signal;HPM_P1;HPM_P2
2022/07/01 00:01:50;;;;;;;8.20;6.37;;;;;;;27.25;53.25;99490.06;4406144;32;31794;-88
2022/07/01 00:04:18;;;;;;;7.85;6.70;;;;;;;27.10;53.95;99486.44;4409551;32;33325;-89
2022/07/01 00:06:45;;;;;;;9.95;6.47;;;;;;;26.97;54.55;99491.59;4415389;32;32462;-88
2022/07/01 00:09:17;;;;;;;11.57;6.82;;;;;;;27.04;54.17;99492.53;4407876;32;34240;-89
2022/07/01 00:11:45;;;;;;;13.77;7.40;;;;;;;27.06;53.98;99498.63;4407078;32;30914;-88
2022/07/01 00:14:13;;;;;;;7.97;6.32;;;;;;;27.01;54.03;99495.59;4401747;32;33328;-88
2022/07/01 00:16:41;;;;;;;11.15;6.85;;;;;;;26.78;54.81;99495.63;4435212;32;32198;-88
2022/07/01 00:19:11;;;;;;;11.88;5.93;;;;;;;26.75;55.02;99496.81;4395866;32;34524;-88
2022/07/01 00:21:46;;;;;;;13.20;6.20;;;;;;;26.80;54.93;99494.41;4426242;32;34032;-89
2022/07/01 00:24:15;;;;;;;9.13;6.43;;;;;;;26.81;54.69;99496.06;4393449;32;33450;-89
2022/07/01 00:26:43;;;;;;;8.25;5.80;;;;;;;26.70;54.96;99492.94;4396114;32;33976;-87
2022/07/01 00:29:10;;;;;;;6.80;6.10;;;;;;;26.84;54.47;99485.91;4408020;32;34391;-87
2022/07/01 00:31:39;;;;;;;8.68;6.53;;;;;;;26.82;54.48;99486.09;4420172;32;33073;-87
2022/07/01 00:34:07;;;;;;;10.07;6.37;;;;;;;26.79;54.50;99492.72;4407721;32;33171;-87
2022/07/01 00:36:34;;;;;;;8.55;6.65;;;;;;;26.59;55.27;99488.78;4394435;32;33130;-87
2022/07/01 00:39:03;;;;;;;9.40;6.28;;;;;;;26.54;55.66;99488.47;4407545;32;32360;-87
2022/07/01 00:41:31;;;;;;;8.57;5.97;;;;;;;26.63;55.29;99490.09;4408581;32;33412;-86
2022/07/01 00:43:59;;;;;;;10.98;6.78;;;;;;;26.52;55.54;99490.50;4425353;32;33981;-87
2022/07/01 00:46:27;;;;;;;7.70;6.55;;;;;;;26.52;55.52;99491.34;4407711;32;32570;-87
2022/07/01 00:48:58;;;;;;;10.30;6.40;;;;;;;26.51;55.39;99483.41;4424978;32;33095;-88
2022/07/01 00:51:26;;;;;;;8.15;6.78;;;;;;;26.51;55.42;99480.69;4419260;32;33375;-88
2022/07/01 00:53:54;;;;;;;12.13;6.35;;;;;;;26.50;55.34;99485.25;4408010;32;34031;-88
2022/07/01 00:56:22;;;;;;;8.38;6.40;;;;;;;26.30;56.25;99482.13;4422211;32;33894;-88
2022/07/01 00:58:50;;;;;;;8.57;6.22;;;;;;;26.30;56.14;99482.13;4400374;32;33861;-88
2022/07/01 01:01:19;;;;;;;9.27;5.40;;;;;;;26.27;56.04;99482.47;4394721;32;32304;-88
2022/07/01 01:03:47;;;;;;;8.77;5.97;;;;;;;26.34;55.77;99484.47;4398757;32;34077;-88
2022/07/01 01:06:15;;;;;;;7.35;6.37;;;;;;;26.37;55.38;99486.81;4418100;32;32406;-88
2022/07/01 01:08:44;;;;;;;9.40;6.53;;;;;;;26.28;55.54;99486.84;4401159;32;32471;-87
2022/07/01 01:11:13;;;;;;;10.05;6.05;;;;;;;26.28;55.68;99494.97;4387154;32;33990;-87
2022/07/01 01:13:42;;;;;;;9.07;6.07;;;;;;;26.12;56.04;99484.22;4389986;32;33847;-88
2022/07/01 01:16:20;;;;;;;11.20;6.50;;;;;;;26.38;55.39;99491.22;4408623;32;34323;-87
2022/07/01 01:18:49;;;;;;;12.27;6.78;;;;;;;26.15;56.34;99501.94;4407597;32;33923;-87
2022/07/01 01:21:18;;;;;;;10.82;6.60;;;;;;;26.09;56.33;99489.97;4407717;32;33034;-87
2022/07/01 01:23:46;;;;;;;9.93;6.85;;;;;;;26.08;56.26;99493.69;4406300;32;34328;-88
2022/07/01 01:26:21;;;;;;;9.27;6.18;;;;;;;25.84;56.72;99496.47;4394921;32;34595;-87
2022/07/01 01:28:50;;;;;;;10.75;7.47;;;;;;;25.70;57.22;99496.13;4412489;32;33635;-87
2022/07/01 01:31:29;;;;;;;13.90;6.97;;;;;;;25.78;56.89;99493.44;4406002;32;33402;-87
2022/07/01 01:33:57;;;;;;;9.32;6.40;;;;;;;25.66;57.27;99500.19;4407611;32;32461;-87
2022/07/01 01:36:25;;;;;;;8.73;6.68;;;;;;;25.85;56.60;99499.00;4383507;32;32840;-88
2022/07/01 01:38:56;;;;;;;14.15;6.93;;;;;;;25.91;56.31;99500.16;4413046;32;34424;-88
2022/07/01 01:41:23;;;;;;;10.27;6.03;;;;;;;25.78;56.93;99508.84;4408707;32;33667;-87
2022/07/01 01:43:51;;;;;;;13.27;6.53;;;;;;;25.75;57.11;99504.59;4408665;32;33886;-88
2022/07/01 01:46:19;;;;;;;10.25;6.03;;;;;;;25.82;56.90;99501.19;4408320;32;34362;-88
2022/07/01 01:48:47;;;;;;;6.80;6.05;;;;;;;25.83;56.70;99497.47;4395423;32;33703;-88
2022/07/01 01:51:15;;;;;;;8.13;6.22;;;;;;;25.82;56.64;99498.50;4405277;32;32441;-88
2022/07/01 01:53:43;;;;;;;7.60;6.10;;;;;;;25.85;56.35;99493.59;4395427;32;34284;-87
2022/07/01 01:56:10;;;;;;;7.03;5.72;;;;;;;25.77;56.54;99497.13;4407221;32;33670;-88
2022/07/01 01:58:42;;;;;;;8.90;6.37;;;;;;;25.82;56.42;99493.06;4407388;32;33422;-88
2022/07/01 02:01:12;;;;;;;9.48;6.72;;;;;;;25.81;56.38;99492.25;4419275;32;34148;-88
2022/07/01 02:03:43;;;;;;;7.32;5.95;;;;;;;25.71;56.75;99492.41;4395105;32;34297;-88
2022/07/01 02:06:12;;;;;;;9.77;6.80;;;;;;;25.57;57.30;99487.69;4408460;32;33783;-88
2022/07/01 02:08:40;;;;;;;7.95;5.95;;;;;;;25.45;58.18;99489.06;4395565;32;34072;-88
2022/07/01 02:11:08;;;;;;;9.05;5.87;;;;;;;25.59;57.45;99485.66;4400382;32;32996;-88
2022/07/01 02:13:37;;;;;;;6.68;6.07;;;;;;;25.54;57.35;99485.31;4420287;32;32885;-87
2022/07/01 02:16:05;;;;;;;7.72;6.50;;;;;;;25.53;57.42;99481.78;4401315;32;32618;-89
2022/07/01 02:18:33;;;;;;;8.80;6.22;;;;;;;25.51;57.40;99483.81;4394751;32;34037;-88
2022/07/01 02:21:02;;;;;;;7.12;5.25;;;;;;;25.37;58.04;99489.91;4412392;32;31475;-89
2022/07/01 02:23:37;;;;;;;7.12;6.43;;;;;;;25.46;57.63;99483.47;4406284;32;33192;-89
2022/07/01 02:26:06;;;;;;;13.50;6.60;;;;;;;25.41;57.65;99490.41;4390089;32;32865;-89
2022/07/01 02:28:34;;;;;;;11.52;5.97;;;;;;;25.26;58.08;99487.56;4397040;32;32547;-89
2022/07/01 02:31:04;;;;;;;8.60;5.80;;;;;;;25.19;58.24;99486.53;4395306;32;33335;-88
2022/07/01 02:33:32;;;;;;;9.07;7.05;;;;;;;25.24;58.05;99501.22;4413778;32;33348;-88
2022/07/01 02:36:00;;;;;;;11.10;7.20;;;;;;;25.17;58.33;99500.22;4419149;32;34532;-88
2022/07/01 02:38:28;;;;;;;11.02;5.82;;;;;;;25.21;58.17;99495.28;4413530;32;33932;-88
2022/07/01 02:40:56;;;;;;;11.90;6.85;;;;;;;25.14;58.40;99503.22;4407470;32;34175;-88
2022/07/01 02:43:24;;;;;;;7.70;6.47;;;;;;;25.26;57.94;99506.47;4414226;32;32765;-88
2022/07/01 02:45:52;;;;;;;7.87;5.75;;;;;;;25.28;57.93;99505.28;4408403;32;34805;-88
2022/07/01 02:48:21;;;;;;;9.75;6.03;;;;;;;25.31;57.83;99511.38;4402881;32;32119;-88
2022/07/01 02:50:48;;;;;;;13.02;6.22;;;;;;;25.20;58.13;99510.66;4418941;32;33231;-89
2022/07/01 02:53:17;;;;;;;7.60;6.80;;;;;;;24.99;59.09;99510.28;4406054;32;34935;-88
2022/07/01 02:55:44;;;;;;;6.95;5.68;;;;;;;25.19;58.37;99513.53;4394284;32;33097;-88
2022/07/01 02:58:12;;;;;;;8.52;6.45;;;;;;;25.22;58.17;99516.75;4403818;32;34079;-88
2022/07/01 03:00:40;;;;;;;10.48;6.35;;;;;;;25.02;58.86;99512.66;4409743;32;33252;-88
2022/07/01 03:03:08;;;;;;;10.85;6.87;;;;;;;25.03;58.81;99519.75;4393952;32;32454;-88
2022/07/01 03:05:36;;;;;;;10.35;6.28;;;;;;;25.18;58.25;99515.41;4403748;32;32222;-89
2022/07/01 03:08:04;;;;;;;12.30;7.03;;;;;;;25.24;57.98;99517.41;4413735;32;34592;-89
2022/07/01 03:10:33;;;;;;;7.85;5.93;;;;;;;25.22;58.12;99519.47;4412305;32;33485;-89
2022/07/01 03:13:01;;;;;;;13.62;5.85;;;;;;;25.27;58.01;99516.25;4399813;32;32044;-88
2022/07/01 03:15:32;;;;;;;9.48;6.45;;;;;;;25.25;57.98;99513.69;4405627;32;33675;-88
2022/07/01 03:18:01;;;;;;;9.85;6.18;;;;;;;25.31;57.77;99512.22;4381667;32;32673;-88
2022/07/01 03:20:29;;;;;;;7.50;5.80;;;;;;;25.32;57.72;99513.91;4394047;32;32280;-89
2022/07/01 03:22:58;;;;;;;9.20;6.40;;;;;;;25.25;58.05;99529.91;4408726;32;33587;-88
2022/07/01 03:25:26;;;;;;;11.07;6.85;;;;;;;25.11;58.74;99532.44;4395092;32;33598;-88
2022/07/01 03:27:54;;;;;;;9.07;6.95;;;;;;;25.15;58.77;99533.78;4387913;32;32867;-88
2022/07/01 03:30:22;;;;;;;11.70;6.65;;;;;;;25.16;59.01;99541.75;4406121;32;32249;-88
2022/07/01 03:32:49;;;;;;;10.20;6.40;;;;;;;25.27;58.85;99546.81;4398684;32;33567;-88
2022/07/01 03:35:36;;;;;;;11.25;6.35;;;;;;;25.22;59.04;99554.59;4406171;32;33702;-87
2022/07/01 03:38:05;;;;;;;11.02;6.12;;;;;;;25.26;59.12;99555.94;4414084;32;34042;-88
2022/07/01 03:40:34;;;;;;;11.18;6.97;;;;;;;25.16;59.57;99554.38;4398553;32;32335;-88
2022/07/01 03:43:03;;;;;;;13.73;5.93;;;;;;;25.34;59.06;99557.78;4405946;32;33045;-88
2022/07/01 03:45:34;;;;;;;11.02;6.53;;;;;;;25.46;58.66;99561.88;4407128;32;34253;-88
2022/07/01 03:48:03;;;;;;;10.20;6.78;;;;;;;25.45;58.97;99567.47;4402254;32;33749;-88
2022/07/01 03:50:31;;;;;;;10.18;6.95;;;;;;;25.60;58.60;99576.56;4412183;32;33022;-88
2022/07/01 03:55:47;;;;;;;9.35;6.68;;;;;;;25.77;58.79;99578.28;4393680;32;32664;-87
2022/07/01 03:58:16;;;;;;;10.57;7.20;;;;;;;25.94;58.34;99584.53;4395519;32;33835;-87
2022/07/01 04:00:44;;;;;;;11.27;6.40;;;;;;;26.04;57.87;99579.78;4397941;32;33030;-86
2022/07/01 04:03:12;;;;;;;10.27;7.05;;;;;;;26.19;57.46;99577.19;4409160;32;33915;-87
2022/07/01 04:05:40;;;;;;;9.25;6.12;;;;;;;26.24;58.34;99579.38;4409421;32;33458;-88
2022/07/01 04:08:10;;;;;;;8.90;6.90;;;;;;;26.24;58.60;99577.53;4405640;32;32680;-88
2022/07/01 04:10:40;;;;;;;10.40;6.55;;;;;;;26.48;57.88;99575.78;4397161;32;33548;-89
2022/07/01 04:13:09;;;;;;;11.43;6.85;;;;;;;26.63;57.40;99570.47;4407816;32;32539;-89
2022/07/01 04:15:58;;;;;;;14.98;7.07;;;;;;;26.83;57.00;99574.47;4407827;32;33458;-88
2022/07/01 04:18:27;;;;;;;9.48;6.15;;;;;;;26.67;57.67;99567.25;4396439;32;33555;-88
2022/07/01 04:23:48;;;;;;;9.77;5.85;;;;;;;27.06;55.83;99574.50;4422793;32;33614;-89
2022/07/01 04:26:16;;;;;;;8.27;6.25;;;;;;;27.14;55.35;99570.94;4395950;32;33540;-88
2022/07/01 04:29:05;;;;;;;12.02;5.90;;;;;;;27.19;55.54;99565.81;4411198;32;34227;-88
2022/07/01 04:31:35;;;;;;;6.78;5.53;;;;;;;27.08;55.64;99568.91;4406322;32;33890;-89
2022/07/01 04:34:04;;;;;;;15.90;6.40;;;;;;;27.19;54.93;99563.09;4406041;32;33661;-89
2022/07/01 04:36:34;;;;;;;12.30;7.10;;;;;;;27.23;54.11;99559.84;4398444;32;31664;-89
2022/07/01 04:39:03;;;;;;;10.93;5.75;;;;;;;27.43;53.37;99564.78;4408532;32;33638;-88
2022/07/01 04:44:22;;;;;;;9.68;6.05;;;;;;;27.98;52.62;99552.81;4408335;32;34468;-89
2022/07/01 04:46:50;;;;;;;12.15;5.90;;;;;;;28.07;52.46;99551.72;4395136;32;33951;-88
2022/07/01 04:49:19;;;;;;;12.20;6.82;;;;;;;28.21;52.26;99555.47;4408425;32;33144;-88
2022/07/01 04:51:49;;;;;;;13.55;6.12;;;;;;;28.29;51.69;99550.75;4407295;32;31249;-88
2022/07/01 04:54:18;;;;;;;11.45;6.35;;;;;;;28.50;51.02;99550.06;4407142;32;33608;-90
2022/07/01 04:56:49;;;;;;;7.72;6.28;;;;;;;28.53;51.50;99551.53;4393721;32;33450;-90
2022/07/01 04:59:19;;;;;;;9.38;6.12;;;;;;;28.57;51.78;99548.25;4398179;32;33078;-90
2022/07/01 05:01:51;;;;;;;10.18;6.37;;;;;;;28.65;52.54;99547.31;4381705;32;32712;-89
2022/07/01 05:04:21;;;;;;;10.05;6.20;;;;;;;28.77;51.29;99545.81;4406948;32;32838;-90
2022/07/01 05:06:49;;;;;;;15.20;7.00;;;;;;;28.80;51.39;99547.28;4407696;32;35657;-87
2022/07/01 05:09:18;;;;;;;10.00;6.65;;;;;;;28.92;51.40;99550.34;4396626;32;33536;-87
2022/07/01 05:11:55;;;;;;;15.40;7.18;;;;;;;29.10;51.82;99553.50;4397634;32;32894;-87
2022/07/01 05:14:26;;;;;;;11.18;6.55;;;;;;;29.20;51.83;99559.50;4395824;32;33770;-87
2022/07/01 05:16:55;;;;;;;9.75;6.50;;;;;;;29.21;52.07;99566.59;4389845;32;33490;-87
2022/07/01 05:22:10;;;;;;;11.57;6.50;;;;;;;29.42;52.04;99568.47;4418023;32;32389;-87
2022/07/01 05:24:38;;;;;;;12.68;6.10;;;;;;;29.36;52.13;99573.87;4397929;32;33145;-87
2022/07/01 05:27:09;;;;;;;13.95;6.22;;;;;;;29.29;51.50;99571.06;4396620;32;32915;-87
2022/07/01 05:29:38;;;;;;;8.65;5.60;;;;;;;29.73;51.32;99570.06;4393792;32;34566;-87
2022/07/01 05:32:08;;;;;;;13.60;6.10;;;;;;;30.08;50.77;99574.50;4397079;32;31569;-88
2022/07/01 05:34:38;;;;;;;7.85;6.15;;;;;;;30.22;50.79;99575.47;4392187;32;33007;-87
2022/07/01 05:37:10;;;;;;;13.40;6.70;;;;;;;30.40;49.87;99574.97;4406907;32;32946;-88
2022/07/01 05:39:37;;;;;;;11.82;5.43;;;;;;;30.50;50.36;99571.88;4405952;32;34042;-88
2022/07/01 05:42:14;;;;;;;13.40;5.60;;;;;;;30.40;49.53;99572.25;4397976;32;32208;-89
2022/07/01 05:44:42;;;;;;;8.65;4.93;;;;;;;30.59;49.55;99568.78;4407429;32;33481;-89
2022/07/01 05:47:10;;;;;;;13.98;6.12;;;;;;;31.03;49.16;99572.97;4402828;32;33161;-89
2022/07/01 05:49:39;;;;;;;9.25;5.40;;;;;;;31.00;48.61;99575.25;4399900;32;32102;-88
2022/07/01 05:52:08;;;;;;;13.50;5.70;;;;;;;31.35;47.96;99571.41;4405962;32;35324;-89
2022/07/01 05:54:39;;;;;;;;;;;;;;;31.30;47.87;99578.53;4395803;32;34050;-85
2022/07/01 05:57:11;;;;;;;14.18;6.97;;;;;;;31.28;47.11;99581.44;4394296;32;33220;-88
2022/07/01 05:59:41;;;;;;;16.00;6.70;;;;;;;31.03;47.88;99588.47;4405613;32;33417;-87
2022/07/01 06:02:12;;;;;;;18.52;7.32;;;;;;;31.36;47.13;99585.88;4422315;32;34275;-87
2022/07/01 06:04:43;;;;;;;12.85;7.12;;;;;;;30.99;47.35;99589.94;4406838;32;33967;-87
2022/07/01 06:07:12;;;;;;;10.25;7.12;;;;;;;31.18;47.21;99591.88;4393387;32;35088;-87
2022/07/01 06:09:42;;;;;;;13.82;7.03;;;;;;;31.42;47.45;99600.56;4405197;32;32609;-87
2022/07/01 06:12:11;;;;;;;15.32;6.82;;;;;;;31.70;46.91;99597.66;4381397;32;36014;-87
2022/07/01 06:14:38;;;;;;;12.30;7.43;;;;;;;31.73;45.64;99600.84;4403419;32;33073;-87
2022/07/01 06:17:09;;;;;;;14.48;7.12;;;;;;;31.54;46.07;99604.37;4381428;32;33120;-86
2022/07/01 06:19:40;;;;;;;;;;;;;;;31.60;46.34;99598.91;4384510;32;32712;-87
2022/07/01 06:22:07;;;;;;;17.55;8.18;;;;;;;31.74;46.61;99599.78;4416977;32;32428;-87
2022/07/01 06:24:36;;;;;;;17.05;7.22;;;;;;;31.79;45.94;99604.59;4414566;32;33151;-87
2022/07/01 06:27:06;;;;;;;14.83;7.10;;;;;;;31.41;46.21;99601.62;4416619;32;31961;-86
2022/07/01 06:29:35;;;;;;;18.55;7.65;;;;;;;31.71;45.84;99607.53;4416999;32;33383;-87
2022/07/01 06:32:05;;;;;;;16.83;8.43;;;;;;;31.71;46.38;99605.63;4406536;32;32853;-87
2022/07/01 06:34:38;;;;;;;12.80;7.70;;;;;;;32.03;45.49;99605.91;4406315;32;32810;-87
2022/07/01 06:37:07;;;;;;;8.93;6.70;;;;;;;32.23;45.60;99600.41;4404266;32;33576;-86
2022/07/01 06:39:41;;;;;;;13.02;7.78;;;;;;;32.32;45.33;99602.72;4405373;32;33034;-87
2022/07/01 06:42:11;;;;;;;21.37;7.90;;;;;;;32.56;43.67;99605.84;4392647;32;33969;-86
2022/07/01 06:44:46;;;;;;;14.60;6.85;;;;;;;32.44;43.74;99604.84;4394214;32;33102;-87
2022/07/01 06:47:19;;;;;;;12.55;8.10;;;;;;;32.29;44.30;99600.41;4402544;32;31558;-87
2022/07/01 06:49:49;;;;;;;13.05;7.32;;;;;;;32.68;44.84;99598.66;4393690;32;32901;-87
2022/07/01 06:52:22;;;;;;;12.15;6.05;;;;;;;32.68;44.05;99600.56;4404516;32;32781;-87
2022/07/01 06:54:54;;;;;;;12.85;6.00;;;;;;;33.09;43.01;99601.06;4393987;32;33079;-86
2022/07/01 06:57:22;;;;;;;12.55;6.40;;;;;;;33.09;42.46;99605.66;4393398;32;32570;-86
2022/07/01 06:59:53;;;;;;;19.17;7.20;;;;;;;33.31;43.40;99598.81;4416555;32;32762;-87
2022/07/01 07:02:21;;;;;;;10.90;5.37;;;;;;;33.20;43.00;99604.16;4406238;32;31575;-88
2022/07/01 07:04:58;;;;;;;12.35;5.60;;;;;;;33.04;41.94;99602.75;4405941;32;33910;-88
2022/07/01 07:07:31;;;;;;;13.50;6.12;;;;;;;32.74;41.88;99597.78;4393647;32;33714;-88
2022/07/01 07:10:00;;;;;;;12.25;5.40;;;;;;;33.24;41.31;99594.47;4421374;32;33870;-88
2022/07/01 07:12:31;;;;;;;11.00;5.10;;;;;;;33.18;41.66;99598.88;4405156;32;32111;-88
2022/07/01 07:15:00;;;;;;;9.38;5.93;;;;;;;33.31;41.02;99593.34;4406770;32;32357;-88
2022/07/01 07:17:28;;;;;;;15.48;4.37;;;;;;;33.50;40.15;99593.47;4405322;32;33933;-88
2022/07/01 07:19:57;;;;;;;11.98;4.35;;;;;;;33.62;39.87;99594.44;4407587;32;32701;-88
2022/07/01 07:22:35;;;;;;;11.85;4.93;;;;;;;33.55;39.44;99589.00;4395218;32;32847;-88
2022/07/01 07:25:05;;;;;;;11.23;4.72;;;;;;;33.28;40.16;99588.31;4394067;32;32553;-88
2022/07/01 07:27:34;;;;;;;18.70;5.72;;;;;;;34.10;38.28;99585.66;4405370;32;34192;-88
2022/07/01 07:30:03;;;;;;;11.57;4.68;;;;;;;33.40;38.83;99582.97;4420451;32;32885;-89
2022/07/01 07:32:39;;;;;;;13.20;4.57;;;;;;;33.68;39.85;99588.06;4420299;32;32704;-88
2022/07/01 07:35:09;;;;;;;6.78;4.00;;;;;;;33.90;38.47;99577.59;4405340;32;33105;-87
2022/07/01 07:37:38;;;;;;;10.60;4.72;;;;;;;33.99;37.02;99589.09;4407474;32;34791;-84
2022/07/01 07:40:11;;;;;;;10.43;4.57;;;;;;;33.89;38.32;99582.19;4395357;32;34156;-84
2022/07/01 07:42:43;;;;;;;11.70;4.50;;;;;;;34.02;37.86;99580.44;4395878;32;32333;-84
2022/07/01 07:45:14;;;;;;;10.20;4.60;;;;;;;34.04;37.67;99586.53;4418354;32;33847;-84
2022/07/01 07:47:48;;;;;;;14.93;5.57;;;;;;;34.25;36.54;99580.63;4408573;32;34659;-84
2022/07/01 07:50:19;;;;;;;16.30;3.80;;;;;;;34.17;37.46;99591.03;4393788;32;33930;-84
2022/07/01 07:52:54;;;;;;;8.85;4.25;;;;;;;34.22;37.11;99581.09;4407344;32;33017;-84
2022/07/01 07:55:22;;;;;;;10.68;4.30;;;;;;;33.95;36.90;99583.25;4382801;32;32514;-84
2022/07/01 07:57:53;;;;;;;11.15;3.60;;;;;;;34.35;36.61;99586.44;4404279;32;32833;-85
2022/07/01 08:00:24;;;;;;;14.23;4.07;;;;;;;34.65;35.93;99582.97;4406012;32;33294;-85
2022/07/01 08:02:54;;;;;;;11.18;4.05;;;;;;;34.78;36.14;99599.25;4414584;32;34136;-85
2022/07/01 08:05:22;;;;;;;5.07;3.30;;;;;;;34.89;35.35;99592.16;4390705;32;33158;-84
2022/07/01 08:07:50;;;;;;;7.97;2.90;;;;;;;35.12;34.80;99592.31;4391083;32;33163;-85
2022/07/01 08:10:20;;;;;;;9.20;3.90;;;;;;;35.27;34.03;99594.63;4416385;32;33141;-84
2022/07/01 08:12:48;;;;;;;14.82;3.87;;;;;;;35.25;34.25;99588.53;4404936;32;33090;-85
2022/07/01 08:15:21;;;;;;;14.80;4.72;;;;;;;35.28;34.10;99588.09;4390474;32;32276;-85
2022/07/01 08:17:50;;;;;;;12.73;4.12;;;;;;;35.53;34.37;99592.59;4404634;32;33672;-85
2022/07/01 08:20:18;;;;;;;10.52;3.75;;;;;;;35.88;33.62;99599.00;4389771;32;34726;-85
2022/07/01 08:23:00;;;;;;;13.23;4.82;;;;;;;35.88;33.21;99593.50;4403493;32;32078;-85
2022/07/01 08:25:29;;;;;;;11.00;4.20;;;;;;;35.29;33.14;99589.75;4408669;32;30698;-85
2022/07/01 08:28:03;;;;;;;11.88;3.58;;;;;;;34.85;35.18;99596.47;4416185;32;33378;-85
2022/07/01 08:30:31;;;;;;;11.12;3.95;;;;;;;35.17;34.74;99591.59;4393791;32;34015;-85
2022/07/01 08:33:01;;;;;;;9.38;2.78;;;;;;;35.32;33.42;99594.78;4403799;32;33339;-84
2022/07/01 08:35:31;;;;;;;10.73;4.00;;;;;;;35.09;32.98;99591.94;4407184;32;32799;-85
2022/07/01 08:37:58;;;;;;;11.55;4.15;;;;;;;35.81;32.97;99586.47;4414972;32;34294;-85
2022/07/01 08:40:30;;;;;;;9.70;3.33;;;;;;;35.90;32.10;99596.03;4389674;32;32624;-85
2022/07/01 08:43:05;;;;;;;7.22;3.45;;;;;;;36.10;31.65;99590.22;4417083;32;33845;-85
2022/07/01 08:45:36;;;;;;;8.35;3.58;;;;;;;35.73;32.39;99595.88;4408034;32;34114;-85
2022/07/01 08:48:06;;;;;;;11.27;3.62;;;;;;;36.03;31.17;99584.81;4416370;32;31997;-85
2022/07/01 08:50:39;;;;;;;9.38;3.30;;;;;;;36.82;31.69;99587.97;4402791;32;33121;-85
2022/07/01 08:53:11;;;;;;;6.82;3.15;;;;;;;36.24;31.52;99590.81;4403858;32;33999;-85
2022/07/01 08:58:29;;;;;;;14.35;3.55;;;;;;;36.30;31.93;99598.94;4406533;32;33665;-85
2022/07/01 09:01:13;;;;;;;4.12;2.75;;;;;;;36.31;30.93;99584.09;4413321;32;33574;-84
2022/07/01 09:03:52;;;;;;;9.30;3.87;;;;;;;36.19;29.22;99580.53;4414644;32;33781;-85
2022/07/01 09:06:29;;;;;;;9.00;2.85;;;;;;;35.86;30.91;99584.66;4415938;32;33302;-85
2022/07/01 09:13:26;;;;;;;10.77;3.30;;;;;;;36.24;30.67;99586.16;3663619;33;20312733;-85
2022/07/01 09:16:27;;;;;;;;;;;;;;;36.61;30.20;99569.41;4279785;33;32777;-84
2022/07/01 09:19:18;;;;;;;11.57;3.28;;;;;;;36.18;28.93;99581.63;4255598;33;33928;-84
2022/07/01 09:22:02;;;;;;;15.82;4.18;;;;;;;36.56;30.33;99569.28;4269520;33;32206;-85
2022/07/01 09:25:01;;;;;;;7.60;3.50;;;;;;;36.59;30.83;99569.63;4272301;33;30780;-85
2022/07/01 09:27:45;;;;;;;6.87;3.30;;;;;;;36.60;28.97;99576.78;4261422;33;32378;-85
2022/07/01 09:30:28;;;;;;;8.68;2.72;;;;;;;36.22;29.69;99568.22;4268911;33;32431;-85
2022/07/01 09:33:17;;;;;;;11.00;3.12;;;;;;;36.96;29.18;99572.06;4270907;33;33124;-85
2022/07/01 09:36:00;;;;;;;9.82;3.03;;;;;;;36.59;29.54;99574.28;4269994;33;33582;-84
2022/07/01 09:38:48;;;;;;;7.50;3.05;;;;;;;36.80;28.49;99570.91;4280090;33;35712;-85
2022/07/01 09:41:37;;;;;;;7.87;3.37;;;;;;;37.09;29.06;99559.94;4269252;33;33395;-85
2022/07/01 09:48:46;;;;;;;5.87;3.00;;;;;;;37.08;28.90;99564.59;4191936;33;34305;-85
2022/07/01 09:51:32;;;;;;;9.00;3.47;;;;;;;37.36;29.40;99560.13;4251771;33;36302;-84
2022/07/01 09:54:18;;;;;;;8.45;2.85;;;;;;;37.41;27.93;99555.62;4242579;33;33589;-85
2022/07/01 09:56:48;;;;;;;10.52;3.22;;;;;;;37.61;28.61;99554.28;4245176;33;34037;-85
2022/07/01 09:59:19;;;;;;;4.90;2.80;;;;;;;37.65;27.94;99558.19;4241829;33;32719;-84
2022/07/01 10:01:48;;;;;;;7.35;3.30;;;;;;;37.53;27.89;99549.19;4252734;33;36193;-86
2022/07/01 10:04:17;;;;;;;15.20;4.15;;;;;;;37.76;28.48;99551.78;4241283;33;33353;-85
2022/07/01 10:07:35;;;;;;;8.52;2.85;;;;;;;37.69;29.12;99556.59;4252473;33;33516;-85
2022/07/01 10:10:49;;;;;;;7.82;3.40;;;;;;;38.25;27.07;99545.66;4497373;31;337970;-82
2022/07/01 10:13:28;;;;;;;7.45;2.95;;;;;;;38.25;27.07;99545.66;4488595;31;33077;-83
2022/07/01 10:16:02;;;;;;;13.70;3.15;;;;;;;38.00;27.86;99554.38;4489088;31;33450;-83
2022/07/01 10:18:34;;;;;;;11.02;2.80;;;;;;;37.52;26.71;99542.00;4472948;32;33303;-83
2022/07/01 10:21:29;;;;;;;8.25;3.42;;;;;;;37.44;27.90;99539.66;4476647;31;32057;-84
2022/07/01 10:24:16;;;;;;;7.15;2.70;;;;;;;37.56;27.95;99543.19;4476727;31;32724;-83
2022/07/01 10:26:46;;;;;;;12.13;3.03;;;;;;;37.56;26.83;99537.69;4488891;31;33678;-83
2022/07/01 10:29:32;;;;;;;8.35;2.65;;;;;;;37.77;27.16;99539.66;4474459;32;33499;-83
2022/07/01 10:32:03;;;;;;;4.93;2.80;;;;;;;38.20;27.05;99534.53;4476996;32;31597;-83
2022/07/01 10:34:44;;;;;;;9.40;3.80;;;;;;;38.53;25.40;99536.41;4479632;31;32720;-83
2022/07/01 10:37:23;;;;;;;8.48;2.78;;;;;;;38.43;25.68;99531.59;4476992;31;33110;-83
2022/07/01 10:40:03;;;;;;;11.85;3.85;;;;;;;38.88;23.95;99525.81;4472319;32;33711;-83
2022/07/01 10:42:58;;;;;;;9.23;3.58;;;;;;;39.43;24.16;99516.44;4472672;31;34455;-83
2022/07/01 10:45:47;;;;;;;7.10;3.05;;;;;;;38.64;24.96;99527.16;4479860;31;31296;-83
2022/07/01 10:48:20;;;;;;;10.88;3.45;;;;;;;38.95;23.64;99516.50;4490489;31;33039;-83
2022/07/01 10:50:55;;;;;;;8.77;3.10;;;;;;;39.25;26.45;99516.81;4474306;32;34690;-83
2022/07/01 10:53:24;;;;;;;8.57;2.70;;;;;;;39.31;23.21;99524.09;4484687;31;33116;-83
2022/07/01 10:55:55;;;;;;;9.20;3.08;;;;;;;39.42;23.52;99517.53;4486188;31;33286;-83
2022/07/01 10:58:38;;;;;;;7.43;2.80;;;;;;;39.61;24.14;99517.97;4485871;32;34886;-83
2022/07/01 11:01:12;;;;;;;9.93;3.47;;;;;;;40.00;24.71;99516.88;4474656;32;34885;-83
2022/07/01 11:03:46;;;;;;;10.40;2.97;;;;;;;39.33;24.49;99519.13;4485269;32;34259;-83
2022/07/01 11:06:17;;;;;;;6.85;3.05;;;;;;;40.00;25.79;99519.66;4473566;32;33318;-83
2022/07/01 11:09:05;;;;;;;10.40;3.28;;;;;;;39.78;24.75;99523.38;4481839;32;33080;-82
2022/07/01 11:11:35;;;;;;;11.55;3.17;;;;;;;38.81;25.11;99524.34;4475410;32;34287;-83
2022/07/01 11:14:05;;;;;;;11.75;2.97;;;;;;;39.11;25.82;99526.59;4487303;32;33226;-83
2022/07/01 11:16:36;;;;;;;9.25;3.53;;;;;;;38.24;26.77;99522.75;4485595;32;33708;-83
2022/07/01 11:19:06;;;;;;;9.15;3.50;;;;;;;38.56;25.52;99527.63;4486168;32;33623;-83
2022/07/01 11:21:37;;;;;;;;;;;;;;;38.50;26.68;99520.34;4474891;32;33265;-83
2022/07/01 11:24:12;;;;;;;8.75;3.40;;;;;;;38.10;27.31;99526.97;4475669;32;34937;-83
2022/07/01 11:26:48;;;;;;;14.90;3.00;;;;;;;38.64;26.33;99521.63;4454183;32;32890;-83
2022/07/01 11:29:29;;;;;;;9.07;2.95;;;;;;;38.75;25.48;99517.94;4477901;32;34796;-83
2022/07/01 11:32:01;;;;;;;6.30;2.85;;;;;;;38.49;24.66;99502.12;4481191;31;33270;-83
2022/07/01 11:34:32;;;;;;;7.53;2.90;;;;;;;38.92;24.76;99502.09;4476506;32;32460;-83
2022/07/01 11:40:12;;;;;;;8.55;2.78;;;;;;;39.08;24.63;99483.78;4472989;32;33889;-83
2022/07/01 11:42:48;;;;;;;16.30;4.30;;;;;;;38.97;23.36;99470.13;4476104;32;34358;-83
2022/07/01 11:45:27;;;;;;;11.50;3.55;;;;;;;38.54;23.92;99485.66;4473587;32;32930;-83
2022/07/01 11:47:57;;;;;;;4.87;2.90;;;;;;;38.03;25.20;99484.94;4464218;32;33029;-83
2022/07/01 11:50:27;;;;;;;7.32;3.42;;;;;;;38.01;25.03;99479.69;4475228;32;33870;-83
2022/07/01 11:52:59;;;;;;;10.55;3.50;;;;;;;38.20;26.20;99480.22;4452148;32;33284;-83
2022/07/01 11:55:34;;;;;;;10.50;3.37;;;;;;;38.77;25.41;99471.59;4463598;32;32970;-83
2022/07/01 11:58:08;;;;;;;10.93;2.92;;;;;;;38.40;24.24;99466.72;4472119;32;33373;-82
2022/07/01 12:00:38;;;;;;;9.83;3.00;;;;;;;38.58;24.41;99467.50;4461528;32;33965;-83
2022/07/01 12:03:10;;;;;;;11.68;3.60;;;;;;;38.75;23.78;99457.25;4466394;32;33048;-83
2022/07/01 12:05:44;;;;;;;11.07;4.07;;;;;;;38.95;24.30;99458.53;4476615;32;34424;-83
2022/07/01 12:08:29;;;;;;;6.55;3.67;;;;;;;39.12;25.07;99453.72;4474284;32;34986;-83
2022/07/01 12:11:00;;;;;;;9.65;3.30;;;;;;;39.54;23.04;99445.50;4464776;32;33926;-83
2022/07/01 12:13:34;;;;;;;5.47;2.78;;;;;;;39.75;22.18;99454.81;4471144;31;33737;-83
2022/07/01 12:16:10;;;;;;;9.38;3.03;;;;;;;40.01;22.43;99450.25;4462906;32;32767;-83
2022/07/01 12:18:56;;;;;;;13.60;3.65;;;;;;;40.32;21.90;99442.16;4474713;32;32835;-83